aviador You're here:

SKLT Decoded Metar

LETICIA in COLOMBIA
Report Time2018-01-17 05:00:00
UTC Time2018-01-17 05:15:49
Flight Rules vfr VFR
WindCalm
Visibility9999 m
Phenomena:N/A
Clouds:Scattered 015 Hf
Scattered 080 Hf
CeilingNone
Temp22°C (ISA +8)
Dew Point22°C (100% RH)
QNH1013 hPa
Density Alt1,506 ft
Elevation276 ft
Report Wrong Elevation
Raw Report
METAR SKLT 170500Z 00000KT 9999 SCT015 SCT080 22/22 A2992=

Extra information for SKLT:More info

Metar Taf Metar & Taf Last 4 Metars F.Rules Stats Wind Profile Meteogram Temp Stats Airport Information Weather charts Add Link Nearby VenuesMetar ALERT Operation Metar Decoded Social comments